createdAt,value
2019-01-23T00:02:14.334Z,92.53
2019-01-23T00:04:45.996Z,121.87
2019-01-23T00:07:17.644Z,100.40
2019-01-23T00:09:49.289Z,120.67
2019-01-23T00:12:20.935Z,97.43
2019-01-23T00:14:52.570Z,81.03
2019-01-23T00:17:24.209Z,112.77
2019-01-23T00:19:55.868Z,139.33
2019-01-23T00:22:27.523Z,97.87
2019-01-23T00:24:59.165Z,159.33
2019-01-23T00:27:30.792Z,128.33
2019-01-23T00:30:04.117Z,82.57
2019-01-23T00:32:35.844Z,103.27
2019-01-23T00:35:07.715Z,113.77
2019-01-23T00:37:39.366Z,130.63
2019-01-23T00:40:11.321Z,126.40
2019-01-23T00:42:43.081Z,145.17
2019-01-23T00:45:14.866Z,121.87
2019-01-23T00:47:46.760Z,150.33
2019-01-23T00:50:18.526Z,131.67
2019-01-23T00:52:50.174Z,119.10
2019-01-23T00:55:21.863Z,130.97
2019-01-23T00:57:53.565Z,132.00
2019-01-23T01:00:25.630Z,164.13
2019-01-23T01:02:57.489Z,149.07
2019-01-23T01:05:29.148Z,133.07
2019-01-23T01:08:00.778Z,153.83
2019-01-23T01:10:32.562Z,137.83
2019-01-23T01:13:04.382Z,134.83
2019-01-23T01:15:36.065Z,120.47
2019-01-23T01:18:07.794Z,144.00
2019-01-23T01:20:39.536Z,118.63
2019-01-23T01:23:11.268Z,148.73
2019-01-23T01:25:42.922Z,142.93
2019-01-23T01:28:14.559Z,142.03
2019-01-23T01:30:46.193Z,125.57
2019-01-23T01:33:17.826Z,135.10
2019-01-23T01:35:49.472Z,139.10
2019-01-23T01:38:21.665Z,131.77
2019-01-23T01:40:53.324Z,138.53
2019-01-23T01:43:24.957Z,160.23
2019-01-23T01:45:56.609Z,138.97
2019-01-23T01:48:28.248Z,111.53
2019-01-23T01:50:59.921Z,126.97
2019-01-23T01:53:31.574Z,150.40
2019-01-23T01:56:03.432Z,115.07
2019-01-23T01:58:35.085Z,117.27
2019-01-23T02:01:06.720Z,132.73
2019-01-23T02:03:38.344Z,131.47
2019-01-23T02:06:10.087Z,118.23
2019-01-23T02:08:41.724Z,119.57
2019-01-23T02:11:13.376Z,120.47
2019-01-23T02:13:45.009Z,137.20
2019-01-23T02:16:16.668Z,143.97
2019-01-23T02:18:48.308Z,133.93
2019-01-23T02:21:19.969Z,143.73
2019-01-23T02:23:51.700Z,129.43
2019-01-23T02:26:23.340Z,110.23
2019-01-23T02:28:54.966Z,146.07
2019-01-23T02:31:26.675Z,135.63
2019-01-23T02:33:58.341Z,130.37
2019-01-23T02:36:30.019Z,116.83
2019-01-23T02:39:01.826Z,127.27
2019-01-23T02:41:33.570Z,125.03
2019-01-23T02:44:05.191Z,127.87
2019-01-23T02:46:36.987Z,122.57
2019-01-23T02:49:08.682Z,124.73
2019-01-23T02:51:40.352Z,96.77
2019-01-23T02:54:11.981Z,117.40
2019-01-23T02:56:43.624Z,136.23
2019-01-23T02:59:17.440Z,118.10
2019-01-23T03:01:48.801Z,106.70
2019-01-23T03:04:20.428Z,123.50
2019-01-23T03:06:52.089Z,120.47
2019-01-23T03:09:23.724Z,117.20
2019-01-23T03:11:55.378Z,125.60
2019-01-23T03:14:27.017Z,89.17
2019-01-23T03:16:58.661Z,70.77
2019-01-23T03:19:30.502Z,96.37
2019-01-23T03:22:02.149Z,96.53
2019-01-23T03:24:33.799Z,69.13
2019-01-23T03:27:05.455Z,113.30
2019-01-23T03:29:37.074Z,96.93
2019-01-23T03:32:08.713Z,127.00
2019-01-23T03:34:40.326Z,124.43
2019-01-23T03:37:11.966Z,119.40
2019-01-23T03:39:43.612Z,128.57
2019-01-23T03:42:15.270Z,122.73
2019-01-23T03:44:46.925Z,76.13
2019-01-23T03:47:18.658Z,119.10
2019-01-23T03:49:50.291Z,136.17
2019-01-23T03:52:21.966Z,109.07
2019-01-23T03:54:53.596Z,103.83
2019-01-23T03:57:25.274Z,134.83
2019-01-23T03:59:56.908Z,130.70
2019-01-23T04:02:28.682Z,95.67
2019-01-23T04:05:00.321Z,145.37
2019-01-23T04:07:31.992Z,120.63
2019-01-23T04:10:05.885Z,126.73
2019-01-23T04:12:37.568Z,126.40
2019-01-23T04:15:10.224Z,92.03
2019-01-23T04:17:42.234Z,102.17
2019-01-23T04:20:15.966Z,127.87
2019-01-23T04:22:47.654Z,127.63
2019-01-23T04:25:19.429Z,106.10
2019-01-23T04:27:51.200Z,127.37
2019-01-23T04:30:23.110Z,62.10
2019-01-23T04:32:54.795Z,93.33
2019-01-23T04:35:26.446Z,152.37
2019-01-23T04:37:58.109Z,104.57
2019-01-23T04:40:29.737Z,116.70
2019-01-23T04:43:01.406Z,144.07
2019-01-23T04:45:33.042Z,148.30
2019-01-23T04:48:04.796Z,93.57
2019-01-23T04:50:56.118Z,75.87
2019-01-23T04:53:34.450Z,116.77
2019-01-23T04:56:06.107Z,106.67
2019-01-23T04:58:37.770Z,95.00
2019-01-23T05:01:09.600Z,121.77
2019-01-23T05:03:41.291Z,127.33
2019-01-23T05:06:12.924Z,126.13
2019-01-23T05:08:44.554Z,96.77
2019-01-23T05:11:16.282Z,111.53
2019-01-23T05:13:48.024Z,116.40
2019-01-23T05:16:19.667Z,134.57
2019-01-23T05:18:51.328Z,145.37
2019-01-23T05:21:22.958Z,145.17
2019-01-23T05:23:54.617Z,86.73
2019-01-23T05:26:26.244Z,101.17
2019-01-23T05:28:57.914Z,85.87
2019-01-23T05:31:29.549Z,129.30
2019-01-23T05:34:01.203Z,113.37
2019-01-23T05:36:32.892Z,112.23
2019-01-23T05:39:06.737Z,131.20
2019-01-23T05:41:38.382Z,144.77
2019-01-23T05:44:10.086Z,127.07
2019-01-23T05:46:41.782Z,151.90
2019-01-23T05:49:13.466Z,110.60
2019-01-23T05:51:45.129Z,112.77
2019-01-23T05:54:16.783Z,106.13
2019-01-23T05:56:48.693Z,132.47
2019-01-23T05:59:20.456Z,166.97
2019-01-23T06:01:52.174Z,98.07
2019-01-23T06:04:23.829Z,130.73
2019-01-23T06:06:55.466Z,102.27
2019-01-23T06:09:27.121Z,165.90
2019-01-23T06:11:58.745Z,119.33
2019-01-23T06:14:30.432Z,96.37
2019-01-23T06:17:02.053Z,150.43
2019-01-23T06:19:33.692Z,153.80
2019-01-23T06:22:05.309Z,135.57
2019-01-23T06:24:36.965Z,121.80
2019-01-23T06:27:08.587Z,132.83
2019-01-23T06:29:40.285Z,143.20
2019-01-23T06:32:11.925Z,106.87
2019-01-23T06:34:43.584Z,138.60
2019-01-23T06:37:15.673Z,145.07
2019-01-23T06:39:47.490Z,112.83
2019-01-23T06:42:19.116Z,142.93
2019-01-23T06:44:50.773Z,138.40
2019-01-23T06:47:22.405Z,163.37
2019-01-23T06:49:54.046Z,131.00
2019-01-23T06:52:25.679Z,85.67
2019-01-23T06:54:57.333Z,127.60
2019-01-23T06:57:28.952Z,150.57
2019-01-23T07:00:00.602Z,150.47
2019-01-23T07:02:32.257Z,149.13
2019-01-23T07:05:05.276Z,142.57
2019-01-23T07:07:36.918Z,104.40
2019-01-23T07:10:11.579Z,153.80
2019-01-23T07:12:43.198Z,142.73
2019-01-23T07:15:14.945Z,138.23
2019-01-23T07:17:46.597Z,129.83
2019-01-23T07:20:25.678Z,98.00
2019-01-23T07:22:57.303Z,141.97
2019-01-23T07:25:29.061Z,130.33
2019-01-23T07:28:00.734Z,154.97
2019-01-23T07:30:35.267Z,123.13
2019-01-23T07:33:06.897Z,164.90
2019-01-23T07:35:38.782Z,124.43
2019-01-23T07:38:10.415Z,122.40
2019-01-23T07:40:42.065Z,186.87
2019-01-23T07:43:13.696Z,136.53
2019-01-23T07:45:45.336Z,150.20
2019-01-23T07:48:17.110Z,145.87
2019-01-23T07:50:48.828Z,165.87
2019-01-23T07:53:20.460Z,178.47
2019-01-23T07:55:52.109Z,104.53
2019-01-23T07:58:23.732Z,184.43
2019-01-23T08:00:55.433Z,161.33
2019-01-23T08:03:27.088Z,161.87
2019-01-23T08:05:58.848Z,145.13
2019-01-23T08:08:30.478Z,164.57
2019-01-23T08:11:02.131Z,153.57
2019-01-23T08:13:33.748Z,171.13
2019-01-23T08:16:05.546Z,159.60
2019-01-23T08:18:37.175Z,164.20
2019-01-23T08:21:08.820Z,135.87
2019-01-23T08:23:40.461Z,168.13
2019-01-23T08:26:12.104Z,183.50
2019-01-23T08:28:43.735Z,181.97
2019-01-23T08:31:15.397Z,93.80
2019-01-23T08:33:47.016Z,161.57
2019-01-23T08:36:18.697Z,125.67
2019-01-23T08:38:50.326Z,156.37
2019-01-23T08:41:21.977Z,172.33
2019-01-23T08:43:53.645Z,188.60
2019-01-23T08:46:25.287Z,167.33
2019-01-23T08:48:56.913Z,185.83
2019-01-23T08:51:28.573Z,173.40
2019-01-23T08:54:00.244Z,187.27
2019-01-23T08:56:31.921Z,152.63
2019-01-23T08:59:03.665Z,161.57
2019-01-23T09:01:35.310Z,200.13
2019-01-23T09:04:07.055Z,199.03
2019-01-23T09:06:38.717Z,201.80
2019-01-23T09:09:10.359Z,185.77
2019-01-23T09:11:42.017Z,202.33
2019-01-23T09:14:13.655Z,201.40
2019-01-23T09:16:45.304Z,177.00
2019-01-23T09:19:16.933Z,185.40
2019-01-23T09:21:48.682Z,204.57
2019-01-23T09:24:20.313Z,167.10
2019-01-23T09:26:52.033Z,175.53
2019-01-23T09:29:23.680Z,171.67
2019-01-23T09:32:20.879Z,186.30
2019-01-23T09:35:17.289Z,233.93
2019-01-23T09:38:10.593Z,230.30
2019-01-23T09:40:49.573Z,224.77
2019-01-23T09:43:44.098Z,233.20
2019-01-23T09:46:55.716Z,233.80
2019-01-23T09:50:17.006Z,101.00
2019-01-23T09:53:20.855Z,231.70
2019-01-23T09:55:52.750Z,262.47
2019-01-23T09:58:24.409Z,191.63
2019-01-23T10:00:59.686Z,202.13
2019-01-23T10:03:29.612Z,210.00
2019-01-23T10:06:01.289Z,261.83
2019-01-23T10:08:32.941Z,195.57
2019-01-23T10:11:04.588Z,242.07
2019-01-23T10:13:36.277Z,177.77
2019-01-23T10:16:11.684Z,243.27
2019-01-23T10:18:43.429Z,249.07
2019-01-23T10:21:15.396Z,242.33
2019-01-23T10:23:47.048Z,174.50
2019-01-23T10:26:18.670Z,136.40
2019-01-23T10:28:50.313Z,256.03
2019-01-23T10:31:21.975Z,241.53
2019-01-23T10:33:53.774Z,191.33
2019-01-23T10:36:25.501Z,243.40
2019-01-23T10:38:57.178Z,194.83
2019-01-23T10:41:28.804Z,241.03
2019-01-23T10:44:00.448Z,220.27
2019-01-23T10:46:32.397Z,183.27
2019-01-23T10:49:04.054Z,235.77
2019-01-23T10:51:35.676Z,240.43
2019-01-23T10:54:07.341Z,218.80
2019-01-23T10:56:39.173Z,250.70
2019-01-23T10:59:10.847Z,237.60
2019-01-23T11:01:42.686Z,248.50
2019-01-23T11:04:14.341Z,287.40
2019-01-23T11:06:45.999Z,190.47
2019-01-23T11:09:17.709Z,280.53
2019-01-23T11:11:49.398Z,260.07
2019-01-23T11:14:21.057Z,278.70
2019-01-23T11:16:52.698Z,322.10
2019-01-23T11:19:24.339Z,277.30
2019-01-23T11:21:56.098Z,252.63
2019-01-23T11:24:27.741Z,265.80
2019-01-23T11:26:59.397Z,257.50
2019-01-23T11:29:31.092Z,276.33
2019-01-23T11:32:02.872Z,312.10
2019-01-23T11:34:34.514Z,291.70
2019-01-23T11:37:06.148Z,301.97
2019-01-23T11:39:37.816Z,288.83
2019-01-23T11:42:09.667Z,299.37
2019-01-23T11:44:41.330Z,290.20
2019-01-23T11:47:12.965Z,296.10
2019-01-23T11:49:44.600Z,304.80
2019-01-23T11:52:16.337Z,263.73
2019-01-23T11:54:48.087Z,276.33
2019-01-23T11:57:19.746Z,286.43
2019-01-23T11:59:51.412Z,288.00
2019-01-23T12:02:23.061Z,271.77
2019-01-23T12:04:54.727Z,275.03
2019-01-23T12:07:26.364Z,263.63
2019-01-23T12:09:58.034Z,254.70
2019-01-23T12:12:29.676Z,226.40
2019-01-23T12:15:01.535Z,281.03
2019-01-23T12:17:33.198Z,256.47
2019-01-23T12:20:05.225Z,267.10
2019-01-23T12:22:37.065Z,244.47
2019-01-23T12:25:09.784Z,288.40
2019-01-23T12:27:41.809Z,237.63
2019-01-23T12:30:19.829Z,276.00
2019-01-23T12:32:51.479Z,216.03
2019-01-23T12:35:23.144Z,199.57
2019-01-23T12:37:54.924Z,250.77
2019-01-23T12:40:26.621Z,263.27
2019-01-23T12:42:58.409Z,242.90
2019-01-23T12:45:30.440Z,253.10
2019-01-23T12:48:02.083Z,257.90
2019-01-23T12:50:33.724Z,267.33
2019-01-23T12:53:05.472Z,219.07
2019-01-23T12:55:37.118Z,261.83
2019-01-23T12:58:08.792Z,289.07
2019-01-23T13:00:40.572Z,290.37
2019-01-23T13:03:12.344Z,298.83
2019-01-23T13:05:44.244Z,179.73
2019-01-23T13:08:16.074Z,257.57
2019-01-23T13:10:47.688Z,227.20
2019-01-23T13:13:19.850Z,254.57
2019-01-23T13:15:51.594Z,206.43
2019-01-23T13:18:23.364Z,240.33
2019-01-23T13:20:55.027Z,229.33
2019-01-23T13:23:26.694Z,274.03
2019-01-23T13:25:58.345Z,254.67
2019-01-23T13:28:30.002Z,282.30
2019-01-23T13:31:01.644Z,239.73
2019-01-23T13:33:34.553Z,273.70
2019-01-23T13:36:07.854Z,300.40
2019-01-23T13:38:39.518Z,201.30
2019-01-23T13:41:11.140Z,257.90
2019-01-23T13:43:42.772Z,252.23
2019-01-23T13:46:14.394Z,211.47
2019-01-23T13:48:46.042Z,237.60
2019-01-23T13:51:17.792Z,262.27
2019-01-23T13:53:49.438Z,289.97
2019-01-23T13:56:21.162Z,236.80
2019-01-23T13:58:52.821Z,273.10
2019-01-23T14:01:24.453Z,240.70
2019-01-23T14:03:56.127Z,274.60
2019-01-23T14:06:27.761Z,239.90
2019-01-23T14:08:59.425Z,217.97
2019-01-23T14:11:31.056Z,247.37
2019-01-23T14:14:02.803Z,170.07
2019-01-23T14:16:34.646Z,203.30
2019-01-23T14:19:14.240Z,230.03
2019-01-23T14:21:45.856Z,290.27
2019-01-23T14:24:17.498Z,237.70
2019-01-23T14:26:49.141Z,161.43
2019-01-23T14:29:20.773Z,265.37
2019-01-23T14:31:52.410Z,207.43
2019-01-23T14:34:24.052Z,250.83
2019-01-23T14:36:55.708Z,262.70
2019-01-23T14:39:27.356Z,127.70
2019-01-23T14:41:58.994Z,235.07
2019-01-23T14:44:30.745Z,222.20
2019-01-23T14:47:02.465Z,212.83
2019-01-23T14:49:34.106Z,258.17
2019-01-23T14:52:06.097Z,224.53
2019-01-23T14:54:57.609Z,217.07
2019-01-23T14:57:41.878Z,132.60
2019-01-23T15:00:27.006Z,167.57
2019-01-23T15:02:58.741Z,205.27
2019-01-23T15:05:50.085Z,153.03
2019-01-23T15:08:41.402Z,124.43
2019-01-23T15:11:26.319Z,152.37
2019-01-23T15:14:11.299Z,167.33
2019-01-23T15:16:55.436Z,181.07
2019-01-23T15:19:40.448Z,154.70
2019-01-23T15:22:25.299Z,183.63
2019-01-23T15:25:10.114Z,145.47
2019-01-23T15:27:54.276Z,134.90
2019-01-23T15:30:38.570Z,149.87
2019-01-23T15:33:22.762Z,151.20
2019-01-23T15:36:07.039Z,175.47
2019-01-23T15:38:51.246Z,189.23
2019-01-23T15:41:36.235Z,128.83
2019-01-23T15:44:21.335Z,97.20
2019-01-23T15:47:03.939Z,164.00
2019-01-23T15:49:55.273Z,133.83
2019-01-23T15:52:39.693Z,146.80
2019-01-23T15:55:24.717Z,154.13
2019-01-23T15:58:09.045Z,144.73
2019-01-23T16:00:54.050Z,177.00
2019-01-23T16:03:38.890Z,112.50
2019-01-23T16:06:23.963Z,97.90
2019-01-23T16:09:08.946Z,125.97
2019-01-23T16:11:53.255Z,121.03
2019-01-23T16:14:38.529Z,94.50
2019-01-23T16:17:23.561Z,103.03
2019-01-23T16:20:08.479Z,99.87
2019-01-23T16:22:52.592Z,75.73
2019-01-23T16:25:37.450Z,107.13
2019-01-23T16:28:22.532Z,114.00
2019-01-23T16:31:07.264Z,106.10
2019-01-23T16:33:51.401Z,81.47
2019-01-23T16:36:36.251Z,122.17
2019-01-23T16:39:21.290Z,62.67
2019-01-23T16:42:06.382Z,118.03
2019-01-23T16:44:51.425Z,107.53
2019-01-23T16:47:36.510Z,123.93
2019-01-23T16:50:21.490Z,90.93
2019-01-23T16:53:05.719Z,93.33
2019-01-23T16:55:50.782Z,87.97
2019-01-23T16:58:34.930Z,84.63
2019-01-23T17:01:19.067Z,109.40
2019-01-23T17:04:04.200Z,82.27
2019-01-23T17:06:48.434Z,104.20
2019-01-23T17:09:34.190Z,114.33
2019-01-23T17:12:18.539Z,79.20
2019-01-23T17:15:02.914Z,72.00
2019-01-23T17:17:48.033Z,108.67
2019-01-23T17:20:33.107Z,79.33
2019-01-23T17:23:17.282Z,75.20
2019-01-23T17:25:59.783Z,92.30
2019-01-23T17:28:44.610Z,71.73
2019-01-23T17:31:29.660Z,66.07
2019-01-23T17:34:13.981Z,94.93
2019-01-23T17:36:58.798Z,103.03
2019-01-23T17:39:30.564Z,77.37
2019-01-23T17:42:21.894Z,85.30
2019-01-23T17:45:06.603Z,85.43
2019-01-23T17:47:50.855Z,68.40
2019-01-23T17:50:34.996Z,74.70
2019-01-23T17:53:19.165Z,91.70
2019-01-23T17:56:01.606Z,89.40
2019-01-23T17:58:46.161Z,67.07
2019-01-23T18:01:28.879Z,73.70
2019-01-23T18:04:13.194Z,71.17
2019-01-23T18:06:58.081Z,89.10
2019-01-23T18:09:43.046Z,57.37
2019-01-23T18:12:25.526Z,73.40
2019-01-23T18:15:10.425Z,40.33
2019-01-23T18:17:55.298Z,61.60
2019-01-23T18:20:40.167Z,52.53
2019-01-23T18:23:25.180Z,67.87
2019-01-23T18:26:09.390Z,72.37
2019-01-23T18:28:53.557Z,41.93
2019-01-23T18:31:38.551Z,46.50
2019-01-23T18:34:23.352Z,71.93
2019-01-23T18:37:08.403Z,77.53
2019-01-23T18:39:53.464Z,75.50
2019-01-23T18:43:01.449Z,55.50
2019-01-23T18:45:45.721Z,63.07
2019-01-23T18:48:30.679Z,78.00
2019-01-23T18:51:15.546Z,47.13
2019-01-23T18:54:00.520Z,56.63
2019-01-23T18:56:45.462Z,69.60
2019-01-23T18:59:30.468Z,100.10
2019-01-23T19:02:15.236Z,77.67
2019-01-23T19:05:00.111Z,53.33
2019-01-23T19:07:44.984Z,45.77
2019-01-23T19:10:30.101Z,64.37
2019-01-23T19:13:14.791Z,59.00
2019-01-23T19:15:59.656Z,58.33
2019-01-23T19:18:44.595Z,79.77
2019-01-23T19:21:30.027Z,73.07
2019-01-23T19:24:15.029Z,61.90
2019-01-23T19:26:59.465Z,61.63
2019-01-23T19:29:44.468Z,43.83
2019-01-23T19:32:27.107Z,63.83
2019-01-23T19:35:11.578Z,71.90
2019-01-23T19:37:56.639Z,49.63
2019-01-23T19:40:41.438Z,79.03
2019-01-23T19:43:25.683Z,46.07
2019-01-23T19:46:11.066Z,48.27
2019-01-23T19:48:55.694Z,76.50
2019-01-23T19:51:39.977Z,46.20
2019-01-23T19:54:24.898Z,47.10
2019-01-23T19:57:09.846Z,51.73
2019-01-23T19:59:54.955Z,61.03
2019-01-23T20:02:39.955Z,52.53
2019-01-23T20:05:24.189Z,65.97
2019-01-23T20:08:09.109Z,74.10
2019-01-23T20:10:54.191Z,74.07
2019-01-23T20:13:36.666Z,68.03
2019-01-23T20:16:21.599Z,87.07
2019-01-23T20:19:06.398Z,82.87
2019-01-23T20:21:50.571Z,47.37
2019-01-23T20:24:34.799Z,62.50
2019-01-23T20:27:18.958Z,80.83
2019-01-23T20:30:04.018Z,67.10
2019-01-23T20:32:49.957Z,55.60
2019-01-23T20:35:34.267Z,71.93
2019-01-23T20:38:18.463Z,63.40
2019-01-23T20:41:02.683Z,80.57
2019-01-23T20:43:46.841Z,47.27
2019-01-23T20:46:31.822Z,80.93
2019-01-23T20:49:16.138Z,67.83
2019-01-23T20:52:01.239Z,59.43
2019-01-23T20:54:45.430Z,75.53
2019-01-23T20:57:29.623Z,76.23
2019-01-23T21:00:14.843Z,78.47
2019-01-23T21:03:00.002Z,59.27
2019-01-23T21:05:42.487Z,75.43
2019-01-23T21:08:27.147Z,78.73
2019-01-23T21:11:09.593Z,74.07
2019-01-23T21:13:54.598Z,77.23
2019-01-23T21:16:40.401Z,65.97
2019-01-23T21:19:25.639Z,69.13
2019-01-23T21:22:13.177Z,80.50
2019-01-23T21:24:57.841Z,70.97
2019-01-23T21:27:42.085Z,86.00
2019-01-23T21:30:27.202Z,65.63
2019-01-23T21:33:11.435Z,81.03
2019-01-23T21:35:56.423Z,67.23
2019-01-23T21:38:41.592Z,82.90
2019-01-23T21:41:26.519Z,72.97
2019-01-23T21:44:11.370Z,76.97
2019-01-23T21:46:55.582Z,50.37
2019-01-23T21:49:40.617Z,72.30
2019-01-23T21:52:23.221Z,76.60
2019-01-23T21:55:07.718Z,77.63
2019-01-23T21:57:52.815Z,71.10
2019-01-23T22:00:37.910Z,84.67
2019-01-23T22:03:23.011Z,77.30
2019-01-23T22:06:07.229Z,74.03
2019-01-23T22:08:51.318Z,79.37
2019-01-23T22:11:36.274Z,73.70
2019-01-23T22:14:21.269Z,70.50
2019-01-23T22:17:06.238Z,74.43
2019-01-23T22:19:48.648Z,79.40
2019-01-23T22:22:39.974Z,80.80
2019-01-23T22:25:24.303Z,64.60
2019-01-23T22:28:09.343Z,63.53
2019-01-23T22:30:51.893Z,59.77
2019-01-23T22:33:36.316Z,80.53
2019-01-23T22:36:21.113Z,74.07
2019-01-23T22:39:05.262Z,85.97
2019-01-23T22:41:56.577Z,66.53
2019-01-23T22:44:41.400Z,85.10
2019-01-23T22:47:26.175Z,48.13
2019-01-23T22:50:11.269Z,74.43
2019-01-23T22:52:53.695Z,76.30
2019-01-23T22:55:38.391Z,37.63
2019-01-23T22:58:22.601Z,50.93
2019-01-23T23:01:07.528Z,76.13
2019-01-23T23:03:52.475Z,68.30
2019-01-23T23:06:36.649Z,73.33
2019-01-23T23:09:21.646Z,76.87
2019-01-23T23:12:06.691Z,70.23
2019-01-23T23:14:49.253Z,72.33
2019-01-23T23:17:40.569Z,73.43
2019-01-23T23:20:24.742Z,76.80
2019-01-23T23:23:07.349Z,67.63
2019-01-23T23:25:51.874Z,71.87
2019-01-23T23:28:36.905Z,62.37
2019-01-23T23:31:21.060Z,54.00
2019-01-23T23:34:09.951Z,64.47
2019-01-23T23:36:49.637Z,69.43
2019-01-23T23:39:34.146Z,55.80
2019-01-23T23:42:18.430Z,70.60
2019-01-23T23:45:02.562Z,64.97
2019-01-23T23:47:47.561Z,76.40
2019-01-23T23:50:32.694Z,76.17
2019-01-23T23:53:17.691Z,69.63
2019-01-23T23:56:02.677Z,63.47
2019-01-23T23:58:47.557Z,65.07
